Time,TemperatureF,DewpointF,PressureIn,WindDirection,WindDirectionDegrees,WindSpeedMPH,WindSpeedGustMPH,Humidity,HourlyPrecipIn,Conditions,Clouds,dailyrainin,SoftwareType,DateUTC
2013-07-17 00:00:00,74.7,74.7,30.22,WSW,252,0.0,0.0,100,0.00,,,0.00,Wunderground v.1.15,2013-07-17 04:00:00,
2013-07-17 00:05:00,74.6,74.6,30.22,WSW,252,0.0,0.0,100,0.00,,,0.00,Wunderground v.1.15,2013-07-17 04:05:00,
2013-07-17 00:10:00,74.6,74.6,30.22,WSW,252,0.0,0.0,100,0.00,,,0.00,Wunderground v.1.15,2013-07-17 04:10:00,
2013-07-17 00:15:00,74.5,74.5,30.23,WSW,252,0.0,0.0,100,0.00,,,0.00,Wunderground v.1.15,2013-07-17 04:15:00,
2013-07-17 00:20:00,74.5,74.5,30.23,WSW,252,0.0,0.0,100,0.00,,,0.00,Wunderground v.1.15,2013-07-17 04:20:00,
2013-07-17 00:25:00,74.5,74.5,30.22,WSW,252,0.0,0.0,100,0.00,,,0.00,Wunderground v.1.15,2013-07-17 04:25:00,
2013-07-17 00:35:00,74.3,74.3,30.23,WSW,252,0.0,0.0,100,0.00,,,0.00,Wunderground v.1.15,2013-07-17 04:35:00,
2013-07-17 00:45:00,74.3,74.3,30.22,WSW,252,0.0,0.0,100,0.00,,,0.00,Wunderground v.1.15,2013-07-17 04:45:00,
2013-07-17 00:55:00,74.1,74.1,30.22,WSW,252,0.0,0.0,100,0.00,,,0.00,Wunderground v.1.15,2013-07-17 04:55:00,
2013-07-17 01:00:00,74.0,74.0,30.23,WSW,252,0.0,0.0,100,0.00,,,0.00,Wunderground v.1.15,2013-07-17 05:00:00,
2013-07-17 01:10:00,73.9,73.9,30.22,WSW,252,0.0,0.0,100,0.00,,,0.00,Wunderground v.1.15,2013-07-17 05:10:00,
2013-07-17 01:20:00,73.6,73.6,30.22,WSW,252,0.0,0.0,100,0.00,,,0.00,Wunderground v.1.15,2013-07-17 05:20:00,
2013-07-17 01:25:00,73.7,73.7,30.22,WSW,252,0.0,0.0,100,0.00,,,0.00,Wunderground v.1.15,2013-07-17 05:25:00,
2013-07-17 01:35:00,73.6,73.6,30.22,WSW,252,0.0,0.0,100,0.00,,,0.00,Wunderground v.1.15,2013-07-17 05:35:00,
2013-07-17 01:40:00,73.4,73.4,30.22,WSW,252,0.0,0.0,100,0.00,,,0.00,Wunderground v.1.15,2013-07-17 05:40:00,
2013-07-17 01:50:00,73.3,73.3,30.22,WSW,252,0.0,0.0,100,0.00,,,0.00,Wunderground v.1.15,2013-07-17 05:50:00,
2013-07-17 02:00:00,73.3,73.3,30.22,WSW,252,0.0,0.0,100,0.00,,,0.00,Wunderground v.1.15,2013-07-17 06:00:00,
2013-07-17 02:10:00,73.2,73.2,30.22,WSW,252,0.0,0.0,100,0.00,,,0.00,Wunderground v.1.15,2013-07-17 06:10:00,
2013-07-17 02:15:00,73.2,73.2,30.22,WSW,252,0.0,0.0,100,0.00,,,0.00,Wunderground v.1.15,2013-07-17 06:15:00,
2013-07-17 02:20:00,73.2,73.2,30.21,WSW,252,0.0,0.0,100,0.00,,,0.00,Wunderground v.1.15,2013-07-17 06:20:00,
2013-07-17 02:30:00,73.1,73.1,30.21,WSW,252,0.0,0.0,100,0.00,,,0.00,Wunderground v.1.15,2013-07-17 06:30:00,
2013-07-17 02:40:00,72.8,72.8,30.21,WSW,252,0.0,0.0,100,0.00,,,0.00,Wunderground v.1.15,2013-07-17 06:40:00,
2013-07-17 02:45:00,72.6,72.6,30.21,WSW,252,0.0,0.0,100,0.00,,,0.00,Wunderground v.1.15,2013-07-17 06:45:00,
2013-07-17 02:55:00,72.7,72.7,30.21,WSW,252,0.0,0.0,100,0.00,,,0.00,Wunderground v.1.15,2013-07-17 06:55:00,
2013-07-17 03:05:00,72.7,72.7,30.21,WSW,252,0.0,0.0,100,0.00,,,0.00,Wunderground v.1.15,2013-07-17 07:05:00,
2013-07-17 03:15:00,72.5,72.5,30.21,WSW,252,0.0,0.0,100,0.00,,,0.00,Wunderground v.1.15,2013-07-17 07:15:00,
2013-07-17 03:25:00,72.2,72.2,30.21,WSW,252,0.0,0.0,100,0.00,,,0.00,Wunderground v.1.15,2013-07-17 07:25:00,
2013-07-17 03:35:00,72.2,72.2,30.21,WSW,252,0.0,0.0,100,0.00,,,0.00,Wunderground v.1.15,2013-07-17 07:35:00,
2013-07-17 03:45:00,72.1,72.1,30.21,WSW,252,0.0,0.0,100,0.00,,,0.00,Wunderground v.1.15,2013-07-17 07:45:00,
2013-07-17 03:50:00,72.0,72.0,30.21,WSW,252,0.0,0.0,100,0.00,,,0.00,Wunderground v.1.15,2013-07-17 07:50:00,
2013-07-17 04:00:00,71.9,71.9,30.21,WSW,252,0.0,0.0,100,0.00,,,0.00,Wunderground v.1.15,2013-07-17 08:00:00,
2013-07-17 04:10:00,71.8,71.8,30.21,WSW,252,0.0,0.0,100,0.00,,,0.00,Wunderground v.1.15,2013-07-17 08:10:00,
2013-07-17 04:15:00,71.8,71.8,30.21,WSW,252,0.0,0.0,100,0.00,,,0.00,Wunderground v.1.15,2013-07-17 08:15:00,
2013-07-17 04:25:00,71.7,71.7,30.21,WSW,252,0.0,0.0,100,0.00,,,0.00,Wunderground v.1.15,2013-07-17 08:25:00,
2013-07-17 04:35:00,71.6,71.6,30.21,WSW,252,0.0,0.0,100,0.00,,,0.00,Wunderground v.1.15,2013-07-17 08:35:00,
2013-07-17 04:45:00,71.5,71.5,30.21,WSW,252,0.0,0.0,100,0.00,,,0.00,Wunderground v.1.15,2013-07-17 08:45:00,
2013-07-17 04:50:00,71.4,71.4,30.22,WSW,252,0.0,0.0,100,0.00,,,0.00,Wunderground v.1.15,2013-07-17 08:50:00,
2013-07-17 05:00:00,71.2,71.2,30.22,WSW,252,0.0,0.0,100,0.00,,,0.00,Wunderground v.1.15,2013-07-17 09:00:00,
2013-07-17 05:10:00,71.0,71.0,30.22,WSW,252,0.0,0.0,100,0.00,,,0.00,Wunderground v.1.15,2013-07-17 09:10:00,
2013-07-17 05:20:00,71.0,71.0,30.22,WSW,252,0.0,0.0,100,0.00,,,0.00,Wunderground v.1.15,2013-07-17 09:20:00,
2013-07-17 05:30:00,71.0,71.0,30.23,WSW,252,0.0,0.0,100,0.00,,,0.00,Wunderground v.1.15,2013-07-17 09:30:00,
2013-07-17 05:40:00,71.1,71.1,30.23,WSW,252,0.0,0.0,100,0.00,,,0.00,Wunderground v.1.15,2013-07-17 09:40:00,
2013-07-17 05:45:00,71.1,71.1,30.23,WSW,252,0.0,0.0,100,0.00,,,0.00,Wunderground v.1.15,2013-07-17 09:45:00,
2013-07-17 05:55:00,70.9,70.9,30.23,WSW,252,0.0,0.0,100,0.00,,,0.00,Wunderground v.1.15,2013-07-17 09:55:00,
2013-07-17 06:05:00,70.8,70.8,30.24,WSW,252,0.0,0.0,100,0.00,,,0.00,Wunderground v.1.15,2013-07-17 10:05:00,
2013-07-17 06:15:00,70.8,70.8,30.24,WSW,252,0.0,0.0,100,0.00,,,0.00,Wunderground v.1.15,2013-07-17 10:15:00,
2013-07-17 06:20:00,70.7,70.7,30.24,WSW,252,0.0,0.0,100,0.00,,,0.00,Wunderground v.1.15,2013-07-17 10:20:00,
2013-07-17 06:30:00,70.8,70.8,30.24,WSW,252,0.0,0.0,100,0.00,,,0.00,Wunderground v.1.15,2013-07-17 10:30:00,
2013-07-17 06:35:00,70.7,70.7,30.24,WSW,252,0.0,0.0,100,0.00,,,0.00,Wunderground v.1.15,2013-07-17 10:35:00,
2013-07-17 06:45:00,70.8,70.8,30.24,WSW,252,0.0,0.0,100,0.00,,,0.00,Wunderground v.1.15,2013-07-17 10:45:00,
2013-07-17 06:55:00,71.0,71.0,30.24,WSW,252,0.0,0.0,100,0.00,,,0.00,Wunderground v.1.15,2013-07-17 10:55:00,
2013-07-17 07:00:00,71.1,71.1,30.24,WSW,252,0.0,0.0,100,0.00,,,0.00,Wunderground v.1.15,2013-07-17 11:00:00,
2013-07-17 07:10:00,71.2,71.2,30.25,WSW,252,0.0,0.0,100,0.00,,,0.00,Wunderground v.1.15,2013-07-17 11:10:00,
2013-07-17 07:15:00,71.3,71.3,30.24,WSW,252,0.0,0.0,100,0.00,,,0.00,Wunderground v.1.15,2013-07-17 11:15:00,
2013-07-17 07:25:00,71.6,71.6,30.25,WSW,252,0.0,0.0,100,0.00,,,0.00,Wunderground v.1.15,2013-07-17 11:25:00,
2013-07-17 07:30:00,71.8,71.8,30.25,WSW,252,0.0,0.0,100,0.00,,,0.00,Wunderground v.1.15,2013-07-17 11:30:00,
2013-07-17 07:40:00,72.0,72.0,30.25,WSW,252,0.0,0.0,100,0.00,,,0.00,Wunderground v.1.15,2013-07-17 11:40:00,
2013-07-17 07:50:00,72.5,72.5,30.25,WSW,252,0.0,0.0,100,0.00,,,0.00,Wunderground v.1.15,2013-07-17 11:50:00,
2013-07-17 08:00:00,72.9,72.9,30.26,WSW,252,0.0,0.0,100,0.00,,,0.00,Wunderground v.1.15,2013-07-17 12:00:00,
2013-07-17 08:10:00,73.4,73.4,30.26,WSW,251,0.0,0.0,100,0.00,,,0.00,Wunderground v.1.15,2013-07-17 12:10:00,
2013-07-17 08:15:00,73.8,73.8,30.26,WSW,252,0.0,0.0,100,0.00,,,0.00,Wunderground v.1.15,2013-07-17 12:15:00,
2013-07-17 08:25:00,74.2,74.2,30.26,WSW,250,0.0,0.0,100,0.00,,,0.00,Wunderground v.1.15,2013-07-17 12:25:00,
2013-07-17 08:35:00,74.9,74.9,30.26,WSW,250,0.0,0.0,100,0.00,,,0.00,Wunderground v.1.15,2013-07-17 12:35:00,
2013-07-17 08:45:00,75.7,75.7,30.26,WSW,250,0.0,0.0,100,0.00,,,0.00,Wunderground v.1.15,2013-07-17 12:45:00,
2013-07-17 08:55:00,76.2,76.2,30.26,WSW,250,0.0,0.0,100,0.00,,,0.00,Wunderground v.1.15,2013-07-17 12:55:00,
2013-07-17 09:05:00,77.2,77.2,30.26,WSW,250,0.0,0.0,100,0.00,,,0.00,Wunderground v.1.15,2013-07-17 13:05:00,
2013-07-17 09:15:00,78.6,78.6,30.26,WSW,250,0.0,0.0,100,0.00,,,0.00,Wunderground v.1.15,2013-07-17 13:15:00,
2013-07-17 09:25:00,80.5,80.5,30.26,WSW,248,0.0,0.0,100,0.00,,,0.00,Wunderground v.1.15,2013-07-17 13:25:00,
2013-07-17 09:30:00,81.6,81.6,30.26,WSW,246,0.0,0.0,100,0.00,,,0.00,Wunderground v.1.15,2013-07-17 13:30:00,
2013-07-17 09:40:00,83.5,81.9,30.25,ESE,122,0.0,0.0,95,0.00,,,0.00,Wunderground v.1.15,2013-07-17 13:40:00,
2013-07-17 09:50:00,85.2,82.9,30.25,SE,129,0.0,0.0,93,0.00,,,0.00,Wunderground v.1.15,2013-07-17 13:50:00,
2013-07-17 10:00:00,86.8,83.2,30.25,SW,221,0.0,1.0,89,0.00,,,0.00,Wunderground v.1.15,2013-07-17 14:00:00,
2013-07-17 10:05:00,87.3,83.3,30.25,ESE,122,1.0,1.0,88,0.00,,,0.00,Wunderground v.1.15,2013-07-17 14:05:00,
2013-07-17 10:15:00,87.8,80.9,30.25,West,264,1.0,2.0,80,0.00,,,0.00,Wunderground v.1.15,2013-07-17 14:15:00,
2013-07-17 10:20:00,88.0,81.0,30.25,NE,48,1.0,1.0,80,0.00,,,0.00,Wunderground v.1.15,2013-07-17 14:20:00,
2013-07-17 10:30:00,87.9,79.8,30.25,East,87,2.0,2.0,77,0.00,,,0.00,Wunderground v.1.15,2013-07-17 14:30:00,
2013-07-17 10:40:00,89.1,80.5,30.25,East,86,1.0,1.0,76,0.00,,,0.00,Wunderground v.1.15,2013-07-17 14:40:00,
2013-07-17 10:50:00,89.8,80.4,30.24,ESE,110,1.0,1.0,74,0.00,,,0.00,Wunderground v.1.15,2013-07-17 14:50:00,
2013-07-17 10:55:00,90.1,81.9,30.24,NE,55,1.0,1.0,77,0.00,,,0.00,Wunderground v.1.15,2013-07-17 14:55:00,
2013-07-17 11:05:00,90.9,81.0,30.24,SW,236,1.0,1.0,73,0.00,,,0.00,Wunderground v.1.15,2013-07-17 15:05:00,
2013-07-17 11:10:00,90.6,80.8,30.24,NE,38,1.0,5.0,73,0.00,,,0.00,Wunderground v.1.15,2013-07-17 15:10:00,
2013-07-17 11:20:00,90.1,79.4,30.24,ENE,76,2.0,2.0,71,0.00,,,0.00,Wunderground v.1.15,2013-07-17 15:20:00,
2013-07-17 11:25:00,90.9,81.0,30.24,NE,46,1.0,2.0,73,0.00,,,0.00,Wunderground v.1.15,2013-07-17 15:25:00,
2013-07-17 11:35:00,91.4,81.5,30.24,ENE,64,1.0,2.0,73,0.00,,,0.00,Wunderground v.1.15,2013-07-17 15:35:00,
2013-07-17 11:45:00,90.9,79.8,30.24,SSE,155,1.0,2.0,70,0.00,,,0.00,Wunderground v.1.15,2013-07-17 15:45:00,
2013-07-17 11:55:00,91.9,80.3,30.23,East,82,1.0,1.0,69,0.00,,,0.00,Wunderground v.1.15,2013-07-17 15:55:00,
2013-07-17 12:00:00,92.3,80.7,30.23,ESE,108,1.0,1.0,69,0.00,,,0.00,Wunderground v.1.15,2013-07-17 16:00:00,
2013-07-17 12:10:00,93.3,80.7,30.23,SE,141,1.0,1.0,67,0.00,,,0.00,Wunderground v.1.15,2013-07-17 16:10:00,
2013-07-17 12:20:00,93.5,79.5,30.23,WSW,249,1.0,2.0,64,0.00,,,0.00,Wunderground v.1.15,2013-07-17 16:20:00,
2013-07-17 12:25:00,93.3,80.7,30.23,ESE,110,1.0,2.0,67,0.00,,,0.00,Wunderground v.1.15,2013-07-17 16:25:00,
2013-07-17 12:35:00,92.0,78.1,30.23,NE,45,2.0,2.0,64,0.00,,,0.00,Wunderground v.1.15,2013-07-17 16:35:00,
2013-07-17 12:40:00,91.3,79.3,30.23,ENE,69,1.0,1.0,68,0.00,,,0.00,Wunderground v.1.15,2013-07-17 16:40:00,
2013-07-17 12:50:00,92.4,78.0,30.23,WSW,238,1.0,1.0,63,0.00,,,0.00,Wunderground v.1.15,2013-07-17 16:50:00,
2013-07-17 13:00:00,93.4,79.4,30.22,ESE,106,0.0,0.0,64,0.00,,,0.00,Wunderground v.1.15,2013-07-17 17:00:00,
2013-07-17 13:10:00,93.6,79.6,30.22,SSE,167,1.0,1.0,64,0.00,,,0.00,Wunderground v.1.15,2013-07-17 17:10:00,
2013-07-17 13:15:00,92.4,78.9,30.22,SE,128,1.0,1.0,65,0.00,,,0.00,Wunderground v.1.15,2013-07-17 17:15:00,
2013-07-17 13:25:00,90.3,81.7,30.22,East,85,1.0,1.0,76,0.00,,,0.00,Wunderground v.1.15,2013-07-17 17:25:00,
2013-07-17 13:30:00,89.6,79.4,30.22,ENE,58,1.0,1.0,72,0.00,,,0.00,Wunderground v.1.15,2013-07-17 17:30:00,
2013-07-17 13:40:00,90.7,80.4,30.21,ESE,114,1.0,2.0,72,0.00,,,0.00,Wunderground v.1.15,2013-07-17 17:40:00,
2013-07-17 13:45:00,90.7,80.0,30.21,ESE,109,2.0,2.0,71,0.00,,,0.00,Wunderground v.1.15,2013-07-17 17:45:00,
2013-07-17 13:55:00,92.1,82.6,30.20,ESE,117,1.0,2.0,74,0.00,,,0.00,Wunderground v.1.15,2013-07-17 17:55:00,
2013-07-17 14:05:00,93.0,80.0,30.20,ENE,77,2.0,2.0,66,0.00,,,0.00,Wunderground v.1.15,2013-07-17 18:05:00,
2013-07-17 14:15:00,94.1,78.1,30.20,SE,128,1.0,2.0,60,0.00,,,0.00,Wunderground v.1.15,2013-07-17 18:15:00,
2013-07-17 14:25:00,93.0,80.0,30.20,East,83,1.0,1.0,66,0.00,,,0.00,Wunderground v.1.15,2013-07-17 18:25:00,
2013-07-17 14:35:00,90.8,81.4,30.19,ESE,107,0.0,1.0,74,0.00,,,0.00,Wunderground v.1.15,2013-07-17 18:35:00,
2013-07-17 14:40:00,89.5,80.9,30.19,NW,320,0.0,0.0,76,0.00,,,0.00,Wunderground v.1.15,2013-07-17 18:40:00,
2013-07-17 14:50:00,88.6,81.2,30.19,NW,320,0.0,0.0,79,0.00,,,0.00,Wunderground v.1.15,2013-07-17 18:50:00,
2013-07-17 14:55:00,89.4,81.6,30.19,NNE,16,0.0,0.0,78,0.00,,,0.00,Wunderground v.1.15,2013-07-17 18:55:00,
2013-07-17 15:05:00,91.1,79.5,30.18,WSW,242,1.0,1.0,69,0.00,,,0.00,Wunderground v.1.15,2013-07-17 19:05:00,
2013-07-17 15:15:00,93.1,80.0,30.18,ENE,75,0.0,0.0,66,0.00,,,0.00,Wunderground v.1.15,2013-07-17 19:15:00,
2013-07-17 15:25:00,93.8,81.2,30.17,SSW,197,1.0,1.0,67,0.00,,,0.00,Wunderground v.1.15,2013-07-17 19:25:00,
2013-07-17 15:35:00,93.7,80.6,30.17,NE,41,1.0,2.0,66,0.00,,,0.00,Wunderground v.1.15,2013-07-17 19:35:00,
2013-07-17 15:40:00,94.2,81.1,30.17,East,99,1.0,2.0,66,0.00,,,0.00,Wunderground v.1.15,2013-07-17 19:40:00,
2013-07-17 15:45:00,94.4,80.3,30.17,ESE,116,1.0,2.0,64,0.00,,,0.00,Wunderground v.1.15,2013-07-17 19:45:00,
2013-07-17 15:55:00,94.3,79.8,30.17,ESE,113,1.0,1.0,63,0.00,,,0.00,Wunderground v.1.15,2013-07-17 19:55:00,
2013-07-17 16:05:00,94.1,78.6,30.16,ESE,109,1.0,1.0,61,0.00,,,0.00,Wunderground v.1.15,2013-07-17 20:05:00,
2013-07-17 16:15:00,94.5,80.4,30.16,ENE,74,0.0,1.0,64,0.00,,,0.00,Wunderground v.1.15,2013-07-17 20:15:00,
2013-07-17 16:25:00,93.1,81.4,30.15,ENE,67,0.0,0.0,69,0.00,,,0.00,Wunderground v.1.15,2013-07-17 20:25:00,
2013-07-17 16:35:00,90.2,80.8,30.15,ENE,67,0.0,0.0,74,0.00,,,0.00,Wunderground v.1.15,2013-07-17 20:35:00,
2013-07-17 16:40:00,89.2,81.0,30.15,ENE,66,0.0,0.0,77,0.00,,,0.00,Wunderground v.1.15,2013-07-17 20:40:00,
2013-07-17 16:50:00,88.0,81.0,30.14,NNE,32,0.0,0.0,80,0.00,,,0.00,Wunderground v.1.15,2013-07-17 20:50:00,
2013-07-17 16:55:00,87.7,80.4,30.14,NE,34,0.0,0.0,79,0.00,,,0.00,Wunderground v.1.15,2013-07-17 20:55:00,
2013-07-17 17:05:00,88.6,82.0,30.14,NE,34,0.0,0.0,81,0.00,,,0.00,Wunderground v.1.15,2013-07-17 21:05:00,
2013-07-17 17:15:00,88.8,81.4,30.14,NNE,28,0.0,2.0,79,0.00,,,0.00,Wunderground v.1.15,2013-07-17 21:15:00,
2013-07-17 17:20:00,88.5,79.1,30.14,NE,41,1.0,1.0,74,0.00,,,0.00,Wunderground v.1.15,2013-07-17 21:20:00,
2013-07-17 17:30:00,88.3,81.3,30.14,NE,41,0.0,0.0,80,0.00,,,0.00,Wunderground v.1.15,2013-07-17 21:30:00,
2013-07-17 17:35:00,88.4,81.4,30.13,NW,307,0.0,1.0,80,0.00,,,0.00,Wunderground v.1.15,2013-07-17 21:35:00,
2013-07-17 17:45:00,87.2,80.7,30.14,WNW,297,0.0,0.0,81,0.00,,,0.00,Wunderground v.1.15,2013-07-17 21:45:00,
2013-07-17 17:55:00,86.7,80.9,30.13,WNW,296,0.0,0.0,83,0.00,,,0.00,Wunderground v.1.15,2013-07-17 21:55:00,
2013-07-17 18:05:00,85.8,80.0,30.13,WNW,297,0.0,0.0,83,0.00,,,0.00,Wunderground v.1.15,2013-07-17 22:05:00,
2013-07-17 18:15:00,84.9,78.4,30.13,WNW,283,0.0,0.0,81,0.00,,,0.00,Wunderground v.1.15,2013-07-17 22:15:00,
2013-07-17 18:25:00,84.4,79.0,30.13,WNW,284,1.0,1.0,84,0.00,,,0.00,Wunderground v.1.15,2013-07-17 22:25:00,
2013-07-17 18:35:00,83.7,79.4,30.13,WNW,284,1.0,1.0,87,0.00,,,0.00,Wunderground v.1.15,2013-07-17 22:35:00,
2013-07-17 18:45:00,83.8,76.6,30.13,NE,37,1.0,3.0,79,0.00,,,0.00,Wunderground v.1.15,2013-07-17 22:45:00,
2013-07-17 18:55:00,84.0,77.5,30.14,NE,40,1.0,2.0,81,0.00,,,0.00,Wunderground v.1.15,2013-07-17 22:55:00,
2013-07-17 19:05:00,83.4,77.3,30.14,SW,224,0.0,0.0,82,0.00,,,0.00,Wunderground v.1.15,2013-07-17 23:05:00,
2013-07-17 19:15:00,82.9,77.6,30.14,West,266,0.0,0.0,84,0.00,,,0.00,Wunderground v.1.15,2013-07-17 23:15:00,
2013-07-17 19:25:00,82.2,77.2,30.14,WNW,287,0.0,1.0,85,0.00,,,0.00,Wunderground v.1.15,2013-07-17 23:25:00,
2013-07-17 19:30:00,82.3,76.6,30.13,WNW,285,0.0,0.0,83,0.00,,,0.00,Wunderground v.1.15,2013-07-17 23:30:00,
2013-07-17 19:40:00,83.0,78.4,30.13,WNW,287,0.0,0.0,86,0.00,,,0.00,Wunderground v.1.15,2013-07-17 23:40:00,
2013-07-17 19:45:00,83.0,78.0,30.13,WNW,293,0.0,0.0,85,0.00,,,0.00,Wunderground v.1.15,2013-07-17 23:45:00,
2013-07-17 19:55:00,83.6,78.2,30.13,SW,219,0.0,2.0,84,0.00,,,0.00,Wunderground v.1.15,2013-07-17 23:55:00,
2013-07-17 20:00:00,83.8,78.4,30.13,ESE,118,0.0,0.0,84,0.00,,,0.00,Wunderground v.1.15,2013-07-18 00:00:00,
2013-07-17 20:10:00,83.0,78.0,30.13,ESE,118,0.0,1.0,85,0.00,,,0.00,Wunderground v.1.15,2013-07-18 00:10:00,
2013-07-17 20:15:00,82.5,78.2,30.13,ESE,120,1.0,1.0,87,0.00,,,0.00,Wunderground v.1.15,2013-07-18 00:15:00,
2013-07-17 20:25:00,82.0,78.1,30.13,ESE,120,0.0,0.0,88,0.00,,,0.00,Wunderground v.1.15,2013-07-18 00:25:00,
2013-07-17 20:30:00,81.9,78.3,30.13,ESE,120,0.0,0.0,89,0.00,,,0.00,Wunderground v.1.15,2013-07-18 00:30:00,
2013-07-17 20:40:00,81.4,77.5,30.13,ESE,120,0.0,0.0,88,0.00,,,0.00,Wunderground v.1.15,2013-07-18 00:40:00,
2013-07-17 20:45:00,81.2,77.6,30.13,ESE,120,0.0,0.0,89,0.00,,,0.00,Wunderground v.1.15,2013-07-18 00:45:00,
2013-07-17 20:55:00,80.7,77.5,30.13,ESE,120,0.0,0.0,90,0.00,,,0.00,Wunderground v.1.15,2013-07-18 00:55:00,
2013-07-17 21:05:00,80.4,77.5,30.13,ESE,120,0.0,0.0,91,0.00,,,0.00,Wunderground v.1.15,2013-07-18 01:05:00,
2013-07-17 21:15:00,80.1,77.6,30.13,ESE,120,0.0,0.0,92,0.00,,,0.00,Wunderground v.1.15,2013-07-18 01:15:00,
2013-07-17 21:20:00,79.8,77.3,30.13,ESE,120,0.0,0.0,92,0.00,,,0.00,Wunderground v.1.15,2013-07-18 01:20:00,
2013-07-17 21:30:00,79.1,76.6,30.14,ESE,120,0.0,0.0,92,0.00,,,0.00,Wunderground v.1.15,2013-07-18 01:30:00,
2013-07-17 21:40:00,78.6,76.4,30.14,ESE,120,0.0,0.0,93,0.00,,,0.00,Wunderground v.1.15,2013-07-18 01:40:00,
2013-07-17 21:50:00,78.3,76.4,30.14,ESE,120,0.0,0.0,94,0.00,,,0.00,Wunderground v.1.15,2013-07-18 01:50:00,
2013-07-17 21:55:00,78.1,76.2,30.15,ESE,120,0.0,0.0,94,0.00,,,0.00,Wunderground v.1.15,2013-07-18 01:55:00,
2013-07-17 22:05:00,77.8,76.3,30.15,ESE,120,0.0,0.0,95,0.00,,,0.00,Wunderground v.1.15,2013-07-18 02:05:00,
2013-07-17 22:15:00,77.7,76.5,30.15,ESE,120,0.0,0.0,96,0.00,,,0.00,Wunderground v.1.15,2013-07-18 02:15:00,
2013-07-17 22:25:00,77.3,76.1,30.14,ESE,120,0.0,0.0,96,0.00,,,0.00,Wunderground v.1.15,2013-07-18 02:25:00,
2013-07-17 22:30:00,77.2,76.0,30.15,ESE,120,0.0,0.0,96,0.00,,,0.00,Wunderground v.1.15,2013-07-18 02:30:00,
2013-07-17 22:40:00,76.8,75.9,30.15,ESE,120,0.0,0.0,97,0.00,,,0.00,Wunderground v.1.15,2013-07-18 02:40:00,
2013-07-17 22:50:00,76.7,76.1,30.15,ESE,120,0.0,0.0,98,0.00,,,0.00,Wunderground v.1.15,2013-07-18 02:50:00,
2013-07-17 22:55:00,76.6,76.0,30.15,ESE,120,0.0,0.0,98,0.00,,,0.00,Wunderground v.1.15,2013-07-18 02:55:00,
2013-07-17 23:05:00,76.5,75.9,30.15,ESE,120,0.0,0.0,98,0.00,,,0.00,Wunderground v.1.15,2013-07-18 03:05:00,
2013-07-17 23:10:00,76.4,75.8,30.15,ESE,120,0.0,0.0,98,0.00,,,0.00,Wunderground v.1.15,2013-07-18 03:10:00,
2013-07-17 23:20:00,76.2,75.9,30.15,ESE,120,0.0,0.0,99,0.00,,,0.00,Wunderground v.1.15,2013-07-18 03:20:00,
2013-07-17 23:30:00,76.1,75.8,30.15,ESE,120,0.0,0.0,99,0.00,,,0.00,Wunderground v.1.15,2013-07-18 03:30:00,
2013-07-17 23:40:00,75.9,75.6,30.15,ESE,120,0.0,0.0,99,0.00,,,0.00,Wunderground v.1.15,2013-07-18 03:40:00,
2013-07-17 23:50:00,75.7,75.4,30.15,ESE,120,0.0,0.0,99,0.00,,,0.00,Wunderground v.1.15,2013-07-18 03:50:00,